createdAt,value
2023-03-02T00:00:05.155Z,1332.40
2023-03-02T00:01:05.108Z,1352.20
2023-03-02T00:02:05.106Z,1364.40
2023-03-02T00:03:05.081Z,1337.80
2023-03-02T00:04:05.044Z,1341.10
2023-03-02T00:05:05.389Z,1336.30
2023-03-02T00:06:04.959Z,1346.70
2023-03-02T00:07:05.019Z,1340.60
2023-03-02T00:08:04.986Z,1327.60
2023-03-02T00:09:04.969Z,1314.20
2023-03-02T00:10:04.999Z,1316.90
2023-03-02T00:11:05.000Z,1315.10
2023-03-02T00:12:04.933Z,1301.80
2023-03-02T00:13:05.026Z,1288.20
2023-03-02T00:14:05.102Z,1280.00
2023-03-02T00:15:04.993Z,1289.10
2023-03-02T00:16:26.275Z,1288.40
2023-03-02T00:17:04.952Z,1292.70
2023-03-02T00:18:05.104Z,1295.00
2023-03-02T00:19:04.916Z,1284.10
2023-03-02T00:20:05.181Z,1280.30
2023-03-02T00:21:04.971Z,1268.50
2023-03-02T00:22:05.004Z,1277.30
2023-03-02T00:23:04.926Z,1274.50
2023-03-02T00:24:04.942Z,1285.40
2023-03-02T00:25:04.963Z,1260.60
2023-03-02T00:26:04.876Z,1267.30
2023-03-02T00:27:04.971Z,1258.40
2023-03-02T00:28:22.226Z,1259.20
2023-03-02T00:29:04.852Z,1253.60
2023-03-02T00:30:04.925Z,1257.50
2023-03-02T00:31:04.952Z,1221.50
2023-03-02T00:32:04.897Z,1234.30
2023-03-02T00:33:04.958Z,1221.30
2023-03-02T00:34:04.888Z,1225.00
2023-03-02T00:35:04.779Z,1219.10
2023-03-02T00:36:04.861Z,1228.00
2023-03-02T00:37:04.792Z,1232.10
2023-03-02T00:38:04.821Z,1234.20
2023-03-02T00:39:04.822Z,1231.90
2023-03-02T00:40:04.773Z,1243.80
2023-03-02T00:41:04.763Z,1244.40
2023-03-02T00:42:04.754Z,1247.50
2023-03-02T00:43:04.729Z,1247.10
2023-03-02T00:44:04.784Z,1257.30
2023-03-02T00:45:04.748Z,1262.50
2023-03-02T00:46:04.668Z,1251.30
2023-03-02T00:47:04.755Z,1243.30
2023-03-02T00:48:04.680Z,1256.30
2023-03-02T00:49:04.825Z,1270.50
2023-03-02T00:50:04.778Z,1273.80
2023-03-02T00:51:04.678Z,1268.60
2023-03-02T00:52:04.754Z,1260.40
2023-03-02T00:53:04.767Z,1255.00
2023-03-02T00:54:04.648Z,1241.90
2023-03-02T00:55:04.766Z,1239.40
2023-03-02T00:56:04.750Z,1235.00
2023-03-02T00:57:04.695Z,1251.40
2023-03-02T00:58:04.725Z,1264.30
2023-03-02T00:59:04.722Z,1262.20
2023-03-02T01:00:04.701Z,1264.00
2023-03-02T01:01:04.718Z,1259.10
2023-03-02T01:02:04.796Z,1252.90
2023-03-02T01:03:04.833Z,1250.00
2023-03-02T01:04:04.754Z,1244.70
2023-03-02T01:05:04.727Z,1241.30
2023-03-02T01:06:04.771Z,1259.20
2023-03-02T01:07:04.665Z,1270.00
2023-03-02T01:08:04.785Z,1274.80
2023-03-02T01:09:04.677Z,1270.80
2023-03-02T01:10:04.553Z,1271.90
2023-03-02T01:11:04.784Z,1252.50
2023-03-02T01:12:04.582Z,1246.90
2023-03-02T01:13:04.555Z,1250.30
2023-03-02T01:14:04.655Z,1243.50
2023-03-02T01:15:04.528Z,1243.80
2023-03-02T01:16:04.583Z,1232.90
2023-03-02T01:17:04.614Z,1243.30
2023-03-02T01:18:04.514Z,1237.50
2023-03-02T01:19:04.530Z,1244.00
2023-03-02T01:20:04.608Z,1240.60
2023-03-02T01:21:04.613Z,1243.40
2023-03-02T01:22:04.578Z,1248.50
2023-03-02T01:23:04.607Z,1286.20
2023-03-02T01:24:04.584Z,1288.70
2023-03-02T01:25:04.631Z,1281.20
2023-03-02T01:26:04.557Z,1285.30
2023-03-02T01:27:04.495Z,1291.00
2023-03-02T01:28:04.563Z,1299.40
2023-03-02T01:29:04.608Z,1303.00
2023-03-02T01:30:04.430Z,1326.60
2023-03-02T01:31:04.835Z,1333.40
2023-03-02T01:32:04.560Z,1338.00
2023-03-02T01:33:04.414Z,1349.70
2023-03-02T01:34:04.530Z,1321.50
2023-03-02T01:35:04.504Z,1311.90
2023-03-02T01:36:04.434Z,1293.30
2023-03-02T01:37:04.447Z,1297.90
2023-03-02T01:38:04.621Z,1325.30
2023-03-02T01:39:04.370Z,1330.00
2023-03-02T01:40:04.461Z,1330.20
2023-03-02T01:41:04.447Z,1352.40
2023-03-02T01:42:04.322Z,1346.40
2023-03-02T01:43:04.479Z,1325.00
2023-03-02T01:44:04.443Z,1307.70
2023-03-02T01:45:04.364Z,1295.80
2023-03-02T01:46:04.494Z,1309.70
2023-03-02T01:47:04.320Z,1305.00
2023-03-02T01:48:04.326Z,1305.60
2023-03-02T01:49:04.336Z,1306.90
2023-03-02T01:50:04.295Z,1303.30
2023-03-02T01:51:04.317Z,1302.20
2023-03-02T01:52:04.290Z,1292.00
2023-03-02T01:53:04.803Z,1292.00
2023-03-02T01:54:05.313Z,1295.00
2023-03-02T01:55:04.261Z,1286.30
2023-03-02T01:56:04.463Z,1285.50
2023-03-02T01:57:04.358Z,1279.60
2023-03-02T01:58:04.360Z,1292.40
2023-03-02T01:59:04.400Z,1292.00
2023-03-02T02:00:04.361Z,1299.30
2023-03-02T02:01:04.420Z,1291.30
2023-03-02T02:02:04.319Z,1291.60
2023-03-02T02:03:04.255Z,1298.70
2023-03-02T02:04:04.384Z,1290.20
2023-03-02T02:05:04.330Z,1286.30
2023-03-02T02:06:04.207Z,1285.30
2023-03-02T02:07:04.286Z,1283.70
2023-03-02T02:08:04.265Z,1283.70
2023-03-02T02:09:04.209Z,1256.10
2023-03-02T02:10:04.284Z,1260.40
2023-03-02T02:11:04.266Z,1267.50
2023-03-02T02:12:04.186Z,1273.00
2023-03-02T02:13:04.160Z,1262.00
2023-03-02T02:14:04.125Z,1252.00
2023-03-02T02:15:04.134Z,1235.80
2023-03-02T02:16:04.536Z,1226.70
2023-03-02T02:17:04.096Z,1228.30
2023-03-02T02:18:04.123Z,1237.10
2023-03-02T02:19:04.247Z,1244.30
2023-03-02T02:20:04.202Z,1239.70
2023-03-02T02:21:04.172Z,1239.00
2023-03-02T02:22:04.181Z,1240.40
2023-03-02T02:23:04.178Z,1240.60
2023-03-02T02:24:04.068Z,1247.30
2023-03-02T02:25:04.153Z,1242.20
2023-03-02T02:26:04.173Z,1256.90
2023-03-02T02:27:04.121Z,1259.90
2023-03-02T02:28:04.164Z,1262.20
2023-03-02T02:29:04.118Z,1272.70
2023-03-02T02:30:04.050Z,1282.20
2023-03-02T02:31:04.124Z,1279.80
2023-03-02T02:32:04.246Z,1272.30
2023-03-02T02:33:03.992Z,1266.80
2023-03-02T02:34:04.097Z,1271.50
2023-03-02T02:35:04.099Z,1282.80
2023-03-02T02:36:04.110Z,1273.30
2023-03-02T02:37:04.103Z,1283.30
2023-03-02T02:38:04.097Z,1276.00
2023-03-02T02:39:04.146Z,1264.30
2023-03-02T02:40:03.971Z,1274.50
2023-03-02T02:41:03.967Z,1272.60
2023-03-02T02:42:03.952Z,1262.70
2023-03-02T02:43:03.994Z,1274.60
2023-03-02T02:44:03.945Z,1277.40
2023-03-02T02:45:03.918Z,1279.50
2023-03-02T02:46:03.982Z,1274.90
2023-03-02T02:47:03.910Z,1287.40
2023-03-02T02:48:03.927Z,1284.30
2023-03-02T02:49:03.904Z,1293.80
2023-03-02T02:50:03.973Z,1298.40
2023-03-02T02:51:03.980Z,1296.90
2023-03-02T02:52:03.907Z,1289.50
2023-03-02T02:53:04.080Z,1286.50
2023-03-02T02:54:22.758Z,1289.40
2023-03-02T02:55:03.886Z,1291.90
2023-03-02T02:56:03.998Z,1302.40
2023-03-02T02:57:04.037Z,1308.80
2023-03-02T02:58:03.845Z,1304.70
2023-03-02T02:59:03.953Z,1317.20
2023-03-02T03:00:03.942Z,1324.30
2023-03-02T03:01:03.859Z,1318.60
2023-03-02T03:02:03.899Z,1321.90
2023-03-02T03:03:03.945Z,1329.70
2023-03-02T03:04:03.873Z,1330.30
2023-03-02T03:05:04.002Z,1331.00
2023-03-02T03:06:03.913Z,1324.60
2023-03-02T03:07:03.791Z,1323.10
2023-03-02T03:08:03.841Z,1310.40
2023-03-02T03:09:04.017Z,1300.20
2023-03-02T03:10:03.797Z,1299.40
2023-03-02T03:11:03.876Z,1293.70
2023-03-02T03:12:03.861Z,1277.00
2023-03-02T03:13:03.739Z,1275.90
2023-03-02T03:14:03.837Z,1266.40
2023-03-02T03:15:03.941Z,1274.10
2023-03-02T03:16:03.729Z,1248.80
2023-03-02T03:17:03.963Z,1237.30
2023-03-02T03:18:03.739Z,1234.70
2023-03-02T03:19:03.723Z,1227.00
2023-03-02T03:20:04.257Z,1238.30
2023-03-02T03:21:03.756Z,1243.80
2023-03-02T03:22:03.698Z,1235.90
2023-03-02T03:23:03.658Z,1242.70
2023-03-02T03:24:03.705Z,1211.30
2023-03-02T03:25:03.666Z,1216.70
2023-03-02T03:26:03.720Z,1231.40
2023-03-02T03:27:03.736Z,1233.80
2023-03-02T03:28:03.802Z,1237.80
2023-03-02T03:29:03.742Z,1235.90
2023-03-02T03:30:03.795Z,1289.90
2023-03-02T03:31:03.703Z,1241.30
2023-03-02T03:32:03.833Z,1239.50
2023-03-02T03:33:03.695Z,1227.60
2023-03-02T03:34:03.589Z,1230.70
2023-03-02T03:35:03.669Z,1235.60
2023-03-02T03:36:04.794Z,1234.60
2023-03-02T03:37:03.577Z,1219.40
2023-03-02T03:38:03.734Z,1239.70
2023-03-02T03:39:03.672Z,1235.10
2023-03-02T03:40:03.566Z,1248.00
2023-03-02T03:41:03.776Z,1250.30
2023-03-02T03:42:03.684Z,1244.10
2023-03-02T03:43:03.540Z,1246.20
2023-03-02T03:44:03.527Z,1229.90
2023-03-02T03:45:03.534Z,1245.60
2023-03-02T03:46:03.591Z,1247.90
2023-03-02T03:47:03.549Z,1250.30
2023-03-02T03:48:03.498Z,1250.50
2023-03-02T03:49:03.463Z,1249.10
2023-03-02T03:50:37.702Z,1248.70
2023-03-02T03:51:34.554Z,1245.10
2023-03-02T03:52:03.565Z,1246.70
2023-03-02T03:53:04.022Z,1247.30
2023-03-02T03:54:04.441Z,1254.10
2023-03-02T03:55:03.615Z,1257.50
2023-03-02T03:56:22.320Z,1248.90
2023-03-02T03:57:03.418Z,1244.00
2023-03-02T03:58:03.463Z,1252.90
2023-03-02T03:59:03.652Z,1244.60
2023-03-02T04:00:03.429Z,1246.90
2023-03-02T04:01:04.455Z,1250.90
2023-03-02T04:02:03.550Z,1256.80
2023-03-02T04:03:03.457Z,1252.90
2023-03-02T04:04:03.424Z,1262.20
2023-03-02T04:05:03.464Z,1253.80
2023-03-02T04:06:03.443Z,1258.60
2023-03-02T04:07:03.469Z,1252.40
2023-03-02T04:08:03.473Z,1245.60
2023-03-02T04:09:03.400Z,1255.40
2023-03-02T04:10:03.509Z,1250.30
2023-03-02T04:11:03.455Z,1252.00
2023-03-02T04:12:03.365Z,1255.60
2023-03-02T04:13:03.469Z,1261.60
2023-03-02T04:14:03.495Z,1267.40
2023-03-02T04:15:03.361Z,1254.50
2023-03-02T04:16:03.489Z,1259.70
2023-03-02T04:17:03.297Z,1263.70
2023-03-02T04:18:03.330Z,1244.50
2023-03-02T04:19:03.305Z,1227.10
2023-03-02T04:20:03.549Z,1221.80
2023-03-02T04:21:03.308Z,1220.50
2023-03-02T04:22:03.272Z,1246.50
2023-03-02T04:23:03.264Z,1217.50
2023-03-02T04:24:03.262Z,1227.30
2023-03-02T04:25:09.369Z,1215.60
2023-03-02T04:26:09.170Z,1222.10
2023-03-02T04:27:03.279Z,1207.00
2023-03-02T04:28:03.332Z,1224.20
2023-03-02T04:29:03.252Z,1224.00
2023-03-02T04:30:03.236Z,1240.90
2023-03-02T04:31:03.456Z,1222.90
2023-03-02T04:32:03.309Z,1223.90
2023-03-02T04:33:03.239Z,1241.20
2023-03-02T04:34:03.310Z,1218.40
2023-03-02T04:35:03.188Z,1218.60
2023-03-02T04:36:03.285Z,1225.50
2023-03-02T04:37:03.299Z,1207.40
2023-03-02T04:38:03.177Z,1253.70
2023-03-02T04:39:03.188Z,1223.70
2023-03-02T04:40:03.295Z,1239.80
2023-03-02T04:41:03.160Z,1222.60
2023-03-02T04:42:03.226Z,1237.30
2023-03-02T04:43:03.317Z,1223.30
2023-03-02T04:44:03.190Z,1223.80
2023-03-02T04:45:03.128Z,1224.40
2023-03-02T04:46:03.271Z,1227.70
2023-03-02T04:47:03.203Z,1234.80
2023-03-02T04:48:03.152Z,1234.50
2023-03-02T04:49:03.342Z,1228.40
2023-03-02T04:50:03.142Z,1264.60
2023-03-02T04:51:03.105Z,1248.30
2023-03-02T04:52:03.296Z,1261.30
2023-03-02T04:53:03.094Z,1354.60
2023-03-02T04:54:03.091Z,1438.00
2023-03-02T04:55:04.300Z,1445.10
2023-03-02T04:56:03.136Z,1477.20
2023-03-02T04:57:03.080Z,1454.10
2023-03-02T04:58:03.243Z,1452.00
2023-03-02T04:59:03.077Z,1439.20
2023-03-02T05:00:22.882Z,1507.50
2023-03-02T05:01:04.052Z,1499.50
2023-03-02T05:02:03.060Z,1516.50
2023-03-02T05:03:03.099Z,1464.60
2023-03-02T05:04:03.236Z,1457.00
2023-03-02T05:05:04.023Z,1525.80
2023-03-02T05:06:03.035Z,1555.70
2023-03-02T05:07:03.134Z,1425.50
2023-03-02T05:08:02.997Z,1433.70
2023-03-02T05:09:03.053Z,1421.20
2023-03-02T05:10:03.185Z,1371.20
2023-03-02T05:11:02.974Z,1427.20
2023-03-02T05:12:02.978Z,1440.90
2023-03-02T05:13:03.098Z,1495.10
2023-03-02T05:14:03.014Z,1517.80
2023-03-02T05:15:02.977Z,1475.30
2023-03-02T05:16:03.052Z,1540.20
2023-03-02T05:17:02.964Z,1481.10
2023-03-02T05:18:02.935Z,1576.50
2023-03-02T05:19:02.962Z,1553.40
2023-03-02T05:20:02.946Z,1565.40
2023-03-02T05:21:02.934Z,1462.70
2023-03-02T05:22:02.924Z,1549.20
2023-03-02T05:23:02.894Z,1547.50
2023-03-02T05:24:02.941Z,1544.70
2023-03-02T05:25:04.723Z,1552.20
2023-03-02T05:26:03.901Z,1522.30
2023-03-02T05:27:02.905Z,1536.30
2023-03-02T05:28:02.884Z,1496.30
2023-03-02T05:29:02.888Z,1522.10
2023-03-02T05:30:02.864Z,1555.60
2023-03-02T05:31:03.305Z,1477.30
2023-03-02T05:32:02.858Z,1501.30
2023-03-02T05:33:02.922Z,1509.40
2023-03-02T05:34:02.848Z,1506.70
2023-03-02T05:35:02.845Z,1516.20
2023-03-02T05:36:02.914Z,1504.80
2023-03-02T05:37:02.839Z,1436.50
2023-03-02T05:38:02.822Z,1308.10
2023-03-02T05:39:02.814Z,1383.70
2023-03-02T05:40:02.853Z,1347.40
2023-03-02T05:41:02.969Z,1332.70
2023-03-02T05:42:02.818Z,1369.30
2023-03-02T05:43:02.823Z,1365.60
2023-03-02T05:44:02.912Z,1388.70
2023-03-02T05:45:02.768Z,1485.60
2023-03-02T05:46:02.891Z,1441.10
2023-03-02T05:47:02.830Z,1442.40
2023-03-02T05:48:02.836Z,1435.00
2023-03-02T05:49:02.754Z,1429.10
2023-03-02T05:50:02.757Z,1460.50
2023-03-02T05:51:02.758Z,1455.40
2023-03-02T05:52:02.747Z,1365.00
2023-03-02T05:53:02.726Z,1439.60
2023-03-02T05:54:02.708Z,1470.50
2023-03-02T05:55:02.728Z,1476.70
2023-03-02T05:56:02.693Z,1526.20
2023-03-02T05:57:02.712Z,1369.20
2023-03-02T05:58:02.717Z,1513.80
2023-03-02T05:59:02.685Z,1543.70
2023-03-02T06:00:02.643Z,1646.20
2023-03-02T06:01:02.644Z,1624.70
2023-03-02T06:02:02.764Z,1672.50
2023-03-02T06:03:02.747Z,1508.60
2023-03-02T06:04:02.647Z,1441.90
2023-03-02T06:05:02.637Z,1378.00
2023-03-02T06:06:02.723Z,1354.70
2023-03-02T06:07:02.718Z,1346.60
2023-03-02T06:08:02.637Z,1348.40
2023-03-02T06:09:02.819Z,1325.20
2023-03-02T06:10:02.736Z,1352.20
2023-03-02T06:11:02.619Z,1373.80
2023-03-02T06:12:02.712Z,1358.40
2023-03-02T06:13:02.687Z,1367.40
2023-03-02T06:14:02.645Z,1381.40
2023-03-02T06:15:02.696Z,1316.30
2023-03-02T06:16:02.688Z,1428.00
2023-03-02T06:17:02.591Z,1465.20
2023-03-02T06:18:02.586Z,1519.50
2023-03-02T06:19:02.559Z,1533.30
2023-03-02T06:20:02.629Z,1419.90
2023-03-02T06:21:02.541Z,1515.30
2023-03-02T06:22:02.670Z,1530.00
2023-03-02T06:23:05.419Z,1561.40
2023-03-02T06:24:02.734Z,1521.40
2023-03-02T06:25:02.592Z,1489.30
2023-03-02T06:26:02.512Z,1577.50
2023-03-02T06:27:02.699Z,1597.20
2023-03-02T06:28:02.602Z,1570.70
2023-03-02T06:29:02.537Z,1538.60
2023-03-02T06:30:02.670Z,1493.90
2023-03-02T06:31:02.504Z,1476.70
2023-03-02T06:32:02.732Z,1516.70
2023-03-02T06:33:02.580Z,1511.30
2023-03-02T06:34:02.483Z,1557.00
2023-03-02T06:35:03.824Z,1542.70
2023-03-02T06:36:02.750Z,1549.20
2023-03-02T06:37:02.458Z,1482.90
2023-03-02T06:38:02.456Z,1483.00
2023-03-02T06:39:02.617Z,1600.40
2023-03-02T06:40:02.421Z,1593.80
2023-03-02T06:41:02.496Z,1523.90
2023-03-02T06:42:02.559Z,1547.40
2023-03-02T06:43:04.216Z,1535.20
2023-03-02T06:44:03.570Z,1598.50
2023-03-02T06:45:02.514Z,1551.10
2023-03-02T06:46:02.526Z,1525.90
2023-03-02T06:47:02.529Z,1554.20
2023-03-02T06:48:02.538Z,1532.60
2023-03-02T06:49:02.357Z,1516.20
2023-03-02T06:50:02.378Z,1506.00
2023-03-02T06:51:02.361Z,1450.30
2023-03-02T06:52:02.386Z,1485.50
2023-03-02T06:53:02.360Z,1462.40
2023-03-02T06:54:02.326Z,1516.80
2023-03-02T06:55:02.396Z,1544.60
2023-03-02T06:56:02.330Z,1520.70
2023-03-02T06:57:02.435Z,1517.00
2023-03-02T06:58:02.375Z,1596.30
2023-03-02T06:59:02.318Z,1611.20
2023-03-02T07:00:02.307Z,1644.50
2023-03-02T07:01:02.345Z,1633.80
2023-03-02T07:02:02.283Z,1599.20
2023-03-02T07:03:02.339Z,1576.50
2023-03-02T07:04:02.446Z,1637.10
2023-03-02T07:05:02.443Z,1603.40
2023-03-02T07:06:02.293Z,1528.20
2023-03-02T07:07:02.390Z,1558.10
2023-03-02T07:08:02.392Z,1557.50
2023-03-02T07:09:02.260Z,1561.90
2023-03-02T07:10:02.385Z,1531.30
2023-03-02T07:11:02.338Z,1492.60
2023-03-02T07:12:02.253Z,1555.40
2023-03-02T07:13:02.193Z,1541.30
2023-03-02T07:14:02.379Z,1521.80
2023-03-02T07:15:02.249Z,1474.60
2023-03-02T07:16:02.381Z,1487.40
2023-03-02T07:17:02.446Z,1493.50
2023-03-02T07:18:02.199Z,1449.90
2023-03-02T07:19:02.265Z,1464.40
2023-03-02T07:20:02.290Z,1422.60
2023-03-02T07:21:02.186Z,1383.10
2023-03-02T07:22:02.179Z,1424.30
2023-03-02T07:23:02.287Z,1412.00
2023-03-02T07:24:02.121Z,1426.10
2023-03-02T07:25:02.203Z,1400.70
2023-03-02T07:26:03.234Z,1397.20
2023-03-02T07:27:02.093Z,1391.40
2023-03-02T07:28:02.136Z,1390.20
2023-03-02T07:29:02.234Z,1315.80
2023-03-02T07:30:02.177Z,1362.80
2023-03-02T07:31:02.172Z,1402.20
2023-03-02T07:32:02.256Z,1367.60
2023-03-02T07:33:02.073Z,1345.10
2023-03-02T07:34:02.083Z,1314.00
2023-03-02T07:35:02.304Z,1312.80
2023-03-02T07:36:02.181Z,1322.50
2023-03-02T07:37:02.080Z,1367.10
2023-03-02T07:38:02.238Z,1347.90
2023-03-02T07:39:02.056Z,1344.40
2023-03-02T07:40:02.034Z,1387.40
2023-03-02T07:41:02.398Z,1382.20
2023-03-02T07:42:02.034Z,1396.30
2023-03-02T07:43:02.049Z,1383.20
2023-03-02T07:44:02.117Z,1386.90
2023-03-02T07:45:02.025Z,1410.50
2023-03-02T07:46:02.157Z,1386.10
2023-03-02T07:47:02.100Z,1385.80
2023-03-02T07:48:01.991Z,1376.20
2023-03-02T07:49:01.969Z,1385.30
2023-03-02T07:50:02.008Z,1412.10
2023-03-02T07:51:01.951Z,1439.50
2023-03-02T07:52:02.020Z,1409.00
2023-03-02T07:53:01.936Z,1418.80
2023-03-02T07:54:01.985Z,1459.50
2023-03-02T07:55:01.991Z,1461.70
2023-03-02T07:56:01.992Z,1396.30
2023-03-02T07:57:01.992Z,1287.80
2023-03-02T07:58:01.937Z,1316.10
2023-03-02T07:59:01.920Z,1312.80
2023-03-02T08:00:01.986Z,1248.10
2023-03-02T08:01:01.914Z,1312.70
2023-03-02T08:02:01.991Z,1327.00
2023-03-02T08:03:09.866Z,1249.70
2023-03-02T08:04:01.884Z,1258.50
2023-03-02T08:05:02.118Z,1271.00
2023-03-02T08:06:02.001Z,1257.30
2023-03-02T08:07:02.058Z,1244.70
2023-03-02T08:08:01.996Z,1251.20
2023-03-02T08:09:01.872Z,1254.80
2023-03-02T08:10:01.978Z,1249.40
2023-03-02T08:11:01.894Z,1254.00
2023-03-02T08:12:01.924Z,1292.00
2023-03-02T08:13:01.936Z,1352.20
2023-03-02T08:14:01.956Z,1343.20
2023-03-02T08:15:03.733Z,1337.20
2023-03-02T08:16:02.841Z,1349.10
2023-03-02T08:17:01.905Z,1386.70
2023-03-02T08:18:01.841Z,1348.80
2023-03-02T08:19:01.872Z,1317.40
2023-03-02T08:20:01.847Z,1357.40
2023-03-02T08:21:01.870Z,1381.50
2023-03-02T08:22:01.928Z,1373.40
2023-03-02T08:23:01.868Z,1338.90
2023-03-02T08:24:02.046Z,1339.30
2023-03-02T08:25:01.787Z,1266.30
2023-03-02T08:26:01.929Z,1204.00
2023-03-02T08:27:01.747Z,1239.20
2023-03-02T08:28:01.779Z,1237.20
2023-03-02T08:29:01.757Z,1281.40
2023-03-02T08:30:01.811Z,1203.50
2023-03-02T08:31:01.690Z,1194.10
2023-03-02T08:32:01.818Z,1160.70
2023-03-02T08:33:05.912Z,1228.50
2023-03-02T08:34:03.685Z,1230.30
2023-03-02T08:35:01.812Z,1247.30
2023-03-02T08:36:01.756Z,1408.20
2023-03-02T08:37:01.696Z,1324.30
2023-03-02T08:38:01.703Z,1258.80
2023-03-02T08:39:01.730Z,1368.70
2023-03-02T08:40:01.703Z,1290.80
2023-03-02T08:41:02.137Z,1275.50
2023-03-02T08:42:01.748Z,1340.10
2023-03-02T08:43:01.668Z,1334.80
2023-03-02T08:44:01.722Z,1234.80
2023-03-02T08:45:01.789Z,1004.00
2023-03-02T08:46:02.176Z,750.80
2023-03-02T08:47:01.813Z,652.50
2023-03-02T08:48:01.743Z,585.40
2023-03-02T08:49:01.612Z,554.00
2023-03-02T08:50:01.695Z,509.40
2023-03-02T08:51:17.055Z,468.80
2023-03-02T08:52:01.629Z,415.20
2023-03-02T08:53:01.764Z,412.30
2023-03-02T08:54:01.706Z,381.10
2023-03-02T08:55:03.889Z,347.10
2023-03-02T08:56:02.645Z,361.60
2023-03-02T08:57:01.654Z,375.00
2023-03-02T08:58:01.563Z,371.20
2023-03-02T08:59:01.626Z,366.20
2023-03-02T09:00:01.622Z,364.50
2023-03-02T09:01:01.583Z,365.60
2023-03-02T09:02:01.616Z,357.60
2023-03-02T09:03:01.664Z,363.90
2023-03-02T09:04:01.563Z,343.70
2023-03-02T09:05:01.504Z,345.10
2023-03-02T09:06:01.449Z,356.40
2023-03-02T09:07:01.527Z,368.70
2023-03-02T09:08:01.579Z,378.40
2023-03-02T09:09:01.480Z,341.80
2023-03-02T09:10:01.431Z,320.20
2023-03-02T09:11:01.548Z,317.80
2023-03-02T09:12:01.448Z,331.60
2023-03-02T09:13:01.439Z,332.70
2023-03-02T09:14:01.447Z,301.20
2023-03-02T09:15:01.386Z,237.60
2023-03-02T09:16:01.377Z,237.60
2023-03-02T09:17:01.577Z,255.10
2023-03-02T09:18:01.477Z,277.90
2023-03-02T09:19:01.593Z,257.50
2023-03-02T09:20:02.539Z,251.70
2023-03-02T09:21:01.440Z,240.10
2023-03-02T09:22:01.367Z,297.30
2023-03-02T09:23:01.409Z,325.00
2023-03-02T09:24:01.480Z,245.30
2023-03-02T09:25:01.457Z,270.70
2023-03-02T09:26:01.405Z,272.10
2023-03-02T09:27:01.487Z,262.00
2023-03-02T09:28:01.304Z,378.40
2023-03-02T09:29:01.461Z,379.90
2023-03-02T09:30:01.427Z,358.20
2023-03-02T09:31:01.314Z,292.60
2023-03-02T09:32:01.561Z,246.10
2023-03-02T09:33:01.522Z,256.50
2023-03-02T09:34:01.255Z,312.10
2023-03-02T09:35:01.300Z,271.40
2023-03-02T09:36:01.591Z,342.30
2023-03-02T09:37:01.261Z,288.40
2023-03-02T09:38:01.363Z,296.50
2023-03-02T09:39:01.331Z,280.90
2023-03-02T09:40:01.262Z,317.30
2023-03-02T09:41:01.379Z,265.90
2023-03-02T09:42:01.334Z,340.50
2023-03-02T09:43:01.225Z,449.10
2023-03-02T09:44:01.284Z,496.90
2023-03-02T09:45:01.278Z,514.80
2023-03-02T09:46:01.254Z,533.90
2023-03-02T09:47:01.640Z,486.30
2023-03-02T09:48:01.339Z,472.40
2023-03-02T09:49:03.147Z,464.40
2023-03-02T09:50:02.221Z,626.10
2023-03-02T09:51:01.307Z,566.10
2023-03-02T09:52:01.166Z,640.70
2023-03-02T09:53:01.267Z,659.40
2023-03-02T09:54:01.132Z,727.80
2023-03-02T09:55:01.134Z,629.00
2023-03-02T09:56:01.145Z,607.10
2023-03-02T09:57:01.140Z,674.40
2023-03-02T09:58:01.181Z,593.70
2023-03-02T09:59:01.101Z,527.80
2023-03-02T10:00:06.799Z,442.50
2023-03-02T10:01:03.157Z,510.90
2023-03-02T10:02:01.062Z,461.40
2023-03-02T10:03:14.733Z,524.30
2023-03-02T10:04:03.307Z,590.00
2023-03-02T10:05:01.079Z,603.20
2023-03-02T10:06:01.203Z,616.60
2023-03-02T10:07:01.073Z,666.80
2023-03-02T10:08:01.125Z,629.80
2023-03-02T10:09:01.195Z,615.00
2023-03-02T10:10:01.048Z,641.80
2023-03-02T10:11:01.145Z,665.10
2023-03-02T10:12:01.113Z,644.20
2023-03-02T10:13:01.024Z,547.00
2023-03-02T10:14:01.161Z,587.80
2023-03-02T10:15:01.153Z,627.40
2023-03-02T10:16:01.037Z,545.00
2023-03-02T10:17:01.138Z,459.90
2023-03-02T10:18:01.089Z,471.40
2023-03-02T10:19:01.627Z,489.70
2023-03-02T10:20:01.106Z,460.30
2023-03-02T10:21:01.143Z,444.60
2023-03-02T10:22:00.920Z,480.60
2023-03-02T10:23:01.019Z,500.10
2023-03-02T10:24:01.002Z,483.00
2023-03-02T10:25:00.991Z,470.20
2023-03-02T10:26:00.912Z,361.90
2023-03-02T10:27:00.926Z,292.70
2023-03-02T10:28:00.930Z,226.70
2023-03-02T10:29:00.926Z,184.20
2023-03-02T10:30:01.080Z,166.40
2023-03-02T10:31:00.911Z,167.70
2023-03-02T10:32:01.140Z,179.70
2023-03-02T10:33:00.925Z,195.40
2023-03-02T10:34:00.897Z,205.30
2023-03-02T10:35:01.003Z,217.00
2023-03-02T10:36:01.105Z,183.70
2023-03-02T10:37:00.875Z,149.50
2023-03-02T10:38:00.972Z,143.20
2023-03-02T10:39:00.957Z,140.60
2023-03-02T10:40:01.033Z,173.80
2023-03-02T10:41:01.017Z,194.70
2023-03-02T10:42:01.028Z,193.30
2023-03-02T10:43:00.814Z,173.60
2023-03-02T10:44:00.961Z,146.10
2023-03-02T10:45:00.966Z,151.20
2023-03-02T10:46:00.932Z,145.80
2023-03-02T10:47:01.327Z,146.10
2023-03-02T10:48:00.935Z,153.80
2023-03-02T10:49:00.824Z,148.30
2023-03-02T10:50:00.840Z,172.50
2023-03-02T10:51:00.857Z,247.30
2023-03-02T10:52:01.051Z,270.60
2023-03-02T10:53:02.535Z,297.30
2023-03-02T10:54:01.902Z,325.00
2023-03-02T10:55:00.725Z,354.00
2023-03-02T10:56:00.733Z,352.50
2023-03-02T10:57:00.786Z,412.60
2023-03-02T10:58:00.847Z,462.70
2023-03-02T10:59:00.671Z,443.60
2023-03-02T11:00:00.723Z,504.30
2023-03-02T11:01:00.685Z,476.40
2023-03-02T11:02:00.888Z,472.60
2023-03-02T11:03:00.764Z,435.20
2023-03-02T11:04:00.701Z,448.40
2023-03-02T11:05:00.738Z,452.60
2023-03-02T11:06:00.818Z,404.30
2023-03-02T11:07:00.688Z,410.10
2023-03-02T11:08:00.972Z,362.10
2023-03-02T11:09:00.964Z,227.80
2023-03-02T11:10:00.662Z,142.10
2023-03-02T11:11:01.425Z,133.60
2023-03-02T11:12:00.859Z,138.80
2023-03-02T11:13:00.798Z,145.50
2023-03-02T11:14:00.658Z,151.90
2023-03-02T11:15:00.708Z,137.90
2023-03-02T11:16:00.724Z,161.50
2023-03-02T11:17:01.862Z,159.30
2023-03-02T11:18:00.758Z,137.20
2023-03-02T11:19:00.722Z,113.60
2023-03-02T11:20:00.576Z,115.20
2023-03-02T11:21:01.152Z,90.30
2023-03-02T11:22:00.605Z,122.70
2023-03-02T11:23:00.661Z,118.60
2023-03-02T11:24:00.727Z,114.90
2023-03-02T11:25:00.605Z,111.10
2023-03-02T11:26:00.682Z,107.80
2023-03-02T11:27:00.644Z,133.00
2023-03-02T11:28:00.497Z,105.10
2023-03-02T11:29:00.522Z,226.30
2023-03-02T11:30:00.549Z,232.90
2023-03-02T11:31:00.646Z,419.30
2023-03-02T11:32:00.489Z,528.00
2023-03-02T11:33:00.503Z,571.60
2023-03-02T11:34:07.813Z,573.30
2023-03-02T11:35:02.497Z,539.50
2023-03-02T11:36:00.498Z,425.40
2023-03-02T11:37:00.615Z,356.00
2023-03-02T11:38:00.463Z,201.60
2023-03-02T11:39:00.530Z,145.10
2023-03-02T11:40:00.527Z,131.70
2023-03-02T11:41:00.376Z,177.40
2023-03-02T11:42:00.695Z,218.40
2023-03-02T11:43:00.689Z,186.60
2023-03-02T11:44:01.010Z,188.60
2023-03-02T11:45:00.497Z,205.30
2023-03-02T11:46:00.562Z,167.60
2023-03-02T11:47:00.443Z,154.40
2023-03-02T11:48:03.539Z,151.30
2023-03-02T11:49:01.479Z,122.50
2023-03-02T11:50:00.414Z,134.10
2023-03-02T11:51:00.583Z,124.10
2023-03-02T11:52:00.454Z,194.40
2023-03-02T11:53:00.547Z,185.30
2023-03-02T11:54:00.587Z,134.10
2023-03-02T11:55:00.366Z,154.20
2023-03-02T11:56:00.299Z,173.40
2023-03-02T11:57:00.370Z,119.80
2023-03-02T11:59:00.350Z,131.40
2023-03-02T12:00:00.285Z,146.60
2023-03-02T12:01:00.275Z,100.30
2023-03-02T12:02:00.482Z,96.10
2023-03-02T12:03:00.311Z,114.90
2023-03-02T12:04:00.268Z,124.60
2023-03-02T12:05:00.304Z,132.60
2023-03-02T12:06:01.259Z,114.60
2023-03-02T12:07:00.215Z,105.00
2023-03-02T12:08:00.286Z,122.50
2023-03-02T12:09:00.356Z,123.90
2023-03-02T12:10:00.303Z,119.80
2023-03-02T12:11:00.191Z,113.80
2023-03-02T12:12:00.401Z,102.90
2023-03-02T12:13:00.383Z,128.00